Time;durP1;ratioP1;P1;durP2;ratioP2;P2;SDS_P1;SDS_P2;PMS_P1;PMS_P2;Temp;Humidity;BMP_temperature;BMP_pressure;BME280_temperature;BME280_humidity;BME280_pressure;Samples;Min_cycle;Max_cycle;Signal;HPM_P1;HPM_P2
2023/05/29 00:00:20;;;;;;;4.20;3.10;;;19.70;79.40;;;;;;5028246;28;20464;-70
2023/05/29 00:02:47;;;;;;;2.77;2.40;;;19.70;79.70;;;;;;5030035;28;20513;-71
2023/05/29 00:05:13;;;;;;;4.37;3.00;;;19.70;79.80;;;;;;5038896;28;20486;-72
2023/05/29 00:07:40;;;;;;;6.20;3.77;;;19.60;79.60;;;;;;5018956;28;20503;-71
2023/05/29 00:10:07;;;;;;;5.20;3.20;;;19.60;79.80;;;;;;5032419;28;20489;-71
2023/05/29 00:12:33;;;;;;;4.37;3.70;;;19.60;80.20;;;;;;5026347;28;20472;-69
2023/05/29 00:14:59;;;;;;;2.47;2.27;;;19.50;80.10;;;;;;5013933;28;20461;-72
2023/05/29 00:17:24;;;;;;;5.10;3.50;;;19.50;80.20;;;;;;5031787;28;20581;-72
2023/05/29 00:19:50;;;;;;;4.67;3.27;;;19.40;80.10;;;;;;5009495;28;20205;-71
2023/05/29 00:22:16;;;;;;;4.23;2.90;;;19.40;80.00;;;;;;5022429;28;20364;-71
2023/05/29 00:24:42;;;;;;;3.87;2.97;;;19.40;80.40;;;;;;5030094;28;20252;-71
2023/05/29 00:27:09;;;;;;;4.07;3.20;;;19.40;80.10;;;;;;5034334;28;20536;-70
2023/05/29 00:29:37;;;;;;;3.00;2.53;;;19.50;80.50;;;;;;5027271;28;20236;-72
2023/05/29 00:32:05;;;;;;;3.53;2.70;;;19.50;80.30;;;;;;5024752;28;20476;-71
2023/05/29 00:34:30;;;;;;;4.87;3.30;;;19.50;80.30;;;;;;5035749;28;20467;-71
2023/05/29 00:36:57;;;;;;;4.27;2.50;;;19.60;80.00;;;;;;5027168;28;20439;-72
2023/05/29 00:39:23;;;;;;;7.90;3.20;;;19.60;79.70;;;;;;5027283;28;20210;-71
2023/05/29 00:41:51;;;;;;;5.60;3.80;;;19.60;79.20;;;;;;5008564;28;20856;-71
2023/05/29 00:44:21;;;;;;;4.23;3.27;;;19.50;79.60;;;;;;5015977;28;20217;-70
2023/05/29 00:46:50;;;;;;;5.13;3.30;;;19.40;79.80;;;;;;5035028;28;20479;-73
2023/05/29 00:49:16;;;;;;;4.53;3.37;;;19.30;80.50;;;;;;5034053;28;20455;-71
2023/05/29 00:51:44;;;;;;;3.50;2.80;;;19.20;80.60;;;;;;5029272;28;20460;-71
2023/05/29 00:54:13;;;;;;;3.23;2.93;;;19.10;80.60;;;;;;5034066;28;20459;-70
2023/05/29 00:56:44;;;;;;;3.40;2.53;;;19.10;81.60;;;;;;5016112;28;20474;-71
2023/05/29 00:59:11;;;;;;;4.73;3.10;;;19.00;80.80;;;;;;5013237;28;20440;-71
2023/05/29 01:01:38;;;;;;;3.50;2.80;;;19.10;80.90;;;;;;5030147;28;20559;-71
2023/05/29 01:04:08;;;;;;;4.20;3.00;;;19.10;82.10;;;;;;5012934;28;20458;-72
2023/05/29 01:06:34;;;;;;;4.90;3.17;;;19.10;81.20;;;;;;5036569;28;20500;-70
2023/05/29 01:08:59;;;;;;;3.03;2.80;;;19.00;81.20;;;;;;5015688;28;20483;-71
2023/05/29 01:11:37;;;;;;;4.00;2.93;;;19.10;81.10;;;;;;5029113;28;20263;-71
2023/05/29 01:14:09;;;;;;;7.93;2.83;;;19.10;81.20;;;;;;5033499;28;20252;-71
2023/05/29 01:16:44;;;;;;;4.03;3.10;;;19.10;81.30;;;;;;5026199;28;20494;-72
2023/05/29 01:19:32;;;;;;;5.70;2.80;;;19.00;81.30;;;;;;5008191;28;20456;-70
2023/05/29 01:22:18;;;;;;;4.57;2.80;;;19.00;81.20;;;;;;5039739;28;20459;-71
2023/05/29 01:24:48;;;;;;;3.50;3.20;;;18.90;81.50;;;;;;5016599;28;20459;-70
2023/05/29 01:27:17;;;;;;;3.50;2.83;;;18.90;81.70;;;;;;5019562;28;20464;-71
2023/05/29 01:29:45;;;;;;;4.90;3.13;;;18.80;81.50;;;;;;5008895;28;20459;-72
2023/05/29 01:32:13;;;;;;;4.00;3.30;;;18.80;82.00;;;;;;5027257;28;20540;-71
2023/05/29 01:34:39;;;;;;;4.40;3.07;;;18.70;82.00;;;;;;5006951;28;20472;-71
2023/05/29 01:37:04;;;;;;;5.33;3.83;;;18.70;81.80;;;;;;5035419;28;20746;-69
2023/05/29 01:39:31;;;;;;;3.83;3.30;;;18.70;82.10;;;;;;5026945;28;20217;-72
2023/05/29 01:41:59;;;;;;;6.17;2.83;;;18.60;81.90;;;;;;5013709;28;20294;-70
2023/05/29 01:44:29;;;;;;;4.20;2.70;;;18.60;82.40;;;;;;5036664;28;20451;-69
2023/05/29 01:46:55;;;;;;;6.30;3.40;;;18.50;82.20;;;;;;5011245;28;20582;-70
2023/05/29 01:49:23;;;;;;;4.00;3.40;;;18.50;82.30;;;;;;5027927;28;20447;-72
2023/05/29 01:51:49;;;;;;;5.80;3.57;;;18.50;82.30;;;;;;5037476;28;20539;-70
2023/05/29 01:54:15;;;;;;;4.20;2.70;;;18.50;82.40;;;;;;5033665;28;20547;-70
2023/05/29 01:56:43;;;;;;;5.10;3.37;;;18.50;82.20;;;;;;5034895;28;20217;-73
2023/05/29 01:59:12;;;;;;;6.93;3.30;;;18.50;82.20;;;;;;5014820;28;20478;-72
2023/05/29 02:01:39;;;;;;;4.00;3.17;;;18.50;82.10;;;;;;5029060;28;20488;-72
2023/05/29 02:04:04;;;;;;;5.83;3.60;;;18.60;82.50;;;;;;5030537;28;20816;-72
2023/05/29 02:06:30;;;;;;;3.70;2.77;;;18.60;82.00;;;;;;5026831;28;20570;-71
2023/05/29 02:08:56;;;;;;;4.73;3.43;;;18.60;82.00;;;;;;5019998;28;20232;-72
2023/05/29 02:11:22;;;;;;;3.50;2.77;;;18.60;82.10;;;;;;5021921;28;20525;-71
2023/05/29 02:13:48;;;;;;;3.67;3.17;;;18.60;82.10;;;;;;5017259;28;20257;-71
2023/05/29 02:16:13;;;;;;;5.90;3.13;;;18.60;81.80;;;;;;5023472;28;20218;-72
2023/05/29 02:18:41;;;;;;;3.70;2.77;;;18.60;82.10;;;;;;5007951;28;20217;-73
2023/05/29 02:21:07;;;;;;;5.30;3.10;;;18.50;81.80;;;;;;5031187;28;20223;-71
2023/05/29 02:23:32;;;;;;;3.43;2.90;;;18.40;82.60;;;;;;5022001;28;20471;-72
2023/05/29 02:25:58;;;;;;;3.87;3.40;;;18.30;82.40;;;;;;5017548;28;20439;-72
2023/05/29 02:28:24;;;;;;;6.20;3.00;;;18.30;82.40;;;;;;5033327;28;20223;-72
2023/05/29 02:30:51;;;;;;;4.53;3.60;;;18.20;83.00;;;;;;5022437;28;20231;-72
2023/05/29 02:33:16;;;;;;;4.70;2.70;;;18.30;82.70;;;;;;5028376;28;20267;-71
2023/05/29 02:35:42;;;;;;;4.77;3.40;;;18.20;82.90;;;;;;5024424;28;20451;-70
2023/05/29 02:38:08;;;;;;;5.20;2.70;;;18.20;82.60;;;;;;5037726;28;20251;-72
2023/05/29 02:40:33;;;;;;;4.57;3.20;;;18.30;82.60;;;;;;5031408;28;20237;-72
2023/05/29 02:42:59;;;;;;;4.20;2.73;;;18.30;82.10;;;;;;5047404;28;20295;-72
2023/05/29 02:45:25;;;;;;;6.20;2.87;;;18.20;82.50;;;;;;5031670;28;20212;-72
2023/05/29 02:47:50;;;;;;;5.03;3.07;;;18.30;82.40;;;;;;5029112;28;20224;-73
2023/05/29 02:50:16;;;;;;;3.47;2.83;;;18.30;82.70;;;;;;5050138;28;20243;-72
2023/05/29 02:52:42;;;;;;;4.30;3.37;;;18.30;82.30;;;;;;5030161;28;20224;-72
2023/05/29 02:55:08;;;;;;;5.70;3.00;;;18.30;81.80;;;;;;5038582;28;20221;-72
2023/05/29 02:57:34;;;;;;;5.10;3.00;;;18.30;82.50;;;;;;5046049;28;20213;-71
2023/05/29 03:00:00;;;;;;;3.87;2.93;;;18.20;82.30;;;;;;5031523;28;20595;-72
2023/05/29 03:02:26;;;;;;;4.27;3.00;;;18.20;82.50;;;;;;5041029;28;20565;-72
2023/05/29 03:04:53;;;;;;;3.97;3.50;;;18.30;82.60;;;;;;5022580;28;20500;-72
2023/05/29 03:07:19;;;;;;;3.63;3.07;;;18.30;81.70;;;;;;5012620;28;20265;-71
2023/05/29 03:09:45;;;;;;;6.60;3.23;;;18.20;82.20;;;;;;5020435;28;20454;-73
2023/05/29 03:12:11;;;;;;;4.50;3.40;;;18.10;82.60;;;;;;5015677;28;20518;-73
2023/05/29 03:14:37;;;;;;;5.00;3.20;;;18.10;82.60;;;;;;5031022;28;20964;-72
2023/05/29 03:17:07;;;;;;;3.50;2.90;;;18.10;82.70;;;;;;5017340;28;20672;-72
2023/05/29 03:19:33;;;;;;;5.27;3.20;;;18.10;82.70;;;;;;5024471;28;20982;-70
2023/05/29 03:21:59;;;;;;;3.30;2.73;;;18.10;82.80;;;;;;5025762;28;20519;-72
2023/05/29 03:24:25;;;;;;;3.63;3.00;;;18.00;83.10;;;;;;5040208;28;20439;-72
2023/05/29 03:26:51;;;;;;;4.20;3.23;;;17.90;83.00;;;;;;5030253;28;20244;-71
2023/05/29 03:29:17;;;;;;;7.77;4.30;;;17.80;83.30;;;;;;5008236;28;20262;-72
2023/05/29 03:31:44;;;;;;;5.77;3.73;;;17.50;83.80;;;;;;5010664;28;20206;-72
2023/05/29 03:34:11;;;;;;;6.43;2.67;;;17.60;84.10;;;;;;5021699;28;20532;-72
2023/05/29 03:36:43;;;;;;;3.37;2.97;;;17.70;83.80;;;;;;5038344;28;20486;-72
2023/05/29 03:39:08;;;;;;;3.40;2.90;;;17.60;84.30;;;;;;5024088;28;20459;-72
2023/05/29 03:41:34;;;;;;;5.10;3.43;;;17.50;84.20;;;;;;5031908;28;21185;-73
2023/05/29 03:44:01;;;;;;;3.83;3.07;;;17.50;84.50;;;;;;5021115;28;20209;-72
2023/05/29 03:46:27;;;;;;;5.40;3.40;;;17.60;84.40;;;;;;5036272;28;20953;-71
2023/05/29 03:48:53;;;;;;;3.60;3.20;;;17.60;84.80;;;;;;5016179;28;20444;-72
2023/05/29 03:51:20;;;;;;;5.37;3.00;;;17.40;85.10;;;;;;5018088;28;20459;-72
2023/05/29 03:53:47;;;;;;;3.40;2.80;;;17.20;86.00;;;;;;5027423;28;20472;-71
2023/05/29 03:56:13;;;;;;;4.60;3.20;;;17.20;86.20;;;;;;5024825;28;20482;-72
2023/05/29 03:58:39;;;;;;;8.80;3.17;;;17.40;85.90;;;;;;5009041;28;20217;-71
2023/05/29 04:01:07;;;;;;;3.30;3.00;;;17.50;85.40;;;;;;5036438;28;20456;-71
2023/05/29 04:03:32;;;;;;;4.10;3.10;;;17.60;85.10;;;;;;5025858;28;20463;-71
2023/05/29 04:05:58;;;;;;;4.10;2.90;;;17.60;85.70;;;;;;5026542;28;20296;-71
2023/05/29 04:08:24;;;;;;;5.80;4.00;;;17.60;85.70;;;;;;5009620;28;20253;-71
2023/05/29 04:10:53;;;;;;;3.20;2.90;;;17.60;85.70;;;;;;5033307;28;20289;-72
2023/05/29 04:13:21;;;;;;;5.50;3.80;;;17.50;85.50;;;;;;5027623;28;20794;-71
2023/05/29 04:15:47;;;;;;;5.57;3.73;;;17.50;85.50;;;;;;5019178;28;20970;-72
2023/05/29 04:18:13;;;;;;;6.10;3.40;;;17.60;85.70;;;;;;5023785;28;20550;-71
2023/05/29 04:20:39;;;;;;;12.77;4.10;;;17.50;85.50;;;;;;5019147;28;21008;-72
2023/05/29 04:23:05;;;;;;;3.80;2.90;;;17.60;85.90;;;;;;5036310;28;20270;-71
2023/05/29 04:25:32;;;;;;;4.03;3.13;;;17.60;85.90;;;;;;5030882;28;20679;-71
2023/05/29 04:28:00;;;;;;;3.17;2.87;;;17.70;85.90;;;;;;5027963;28;20470;-71
2023/05/29 04:30:26;;;;;;;3.27;2.97;;;17.70;85.80;;;;;;5025877;28;20451;-71
2023/05/29 04:32:53;;;;;;;3.20;2.87;;;17.70;86.00;;;;;;5013345;28;20464;-72
2023/05/29 04:35:21;;;;;;;5.70;3.07;;;17.70;86.10;;;;;;5032133;28;20221;-71
2023/05/29 04:37:56;;;;;;;4.83;3.50;;;17.60;86.20;;;;;;5006951;28;20901;-71
2023/05/29 04:40:22;;;;;;;4.90;3.40;;;17.60;86.40;;;;;;5028661;28;20972;-72
2023/05/29 04:42:50;;;;;;;3.70;2.80;;;17.60;86.80;;;;;;5004679;28;20498;-72
2023/05/29 04:45:16;;;;;;;4.20;3.10;;;17.60;87.00;;;;;;5018031;28;20460;-71
2023/05/29 04:47:45;;;;;;;2.77;2.57;;;17.50;88.20;;;;;;5019144;28;20518;-72
2023/05/29 04:50:12;;;;;;;14.80;3.20;;;17.60;88.10;;;;;;5018944;28;20217;-72
2023/05/29 04:52:39;;;;;;;3.07;2.77;;;17.70;88.20;;;;;;5011223;28;20521;-70
2023/05/29 04:55:07;;;;;;;4.03;2.90;;;17.70;87.80;;;;;;5019794;28;20551;-72
2023/05/29 04:57:33;;;;;;;3.77;2.90;;;17.70;88.10;;;;;;5021153;28;20447;-71
2023/05/29 05:00:00;;;;;;;3.90;2.80;;;17.70;88.00;;;;;;5007793;28;20980;-72
2023/05/29 05:02:26;;;;;;;3.27;2.63;;;17.80;88.00;;;;;;5027288;28;20547;-71
2023/05/29 05:04:52;;;;;;;3.60;2.33;;;17.80;88.20;;;;;;5009236;28;20887;-72
2023/05/29 05:07:17;;;;;;;3.63;2.90;;;17.80;88.50;;;;;;5037771;28;20255;-72
2023/05/29 05:09:43;;;;;;;4.80;3.27;;;17.80;88.40;;;;;;5026575;28;20717;-72
2023/05/29 05:12:17;;;;;;;4.03;2.50;;;17.80;89.10;;;;;;5023192;28;20837;-71
2023/05/29 05:14:42;;;;;;;4.00;3.70;;;17.80;89.00;;;;;;5005673;28;20505;-70
2023/05/29 05:17:08;;;;;;;4.43;2.90;;;17.80;89.30;;;;;;5009222;28;20225;-72
2023/05/29 05:19:34;;;;;;;3.13;2.80;;;17.80;89.80;;;;;;5024807;28;20288;-71
2023/05/29 05:22:00;;;;;;;4.87;2.33;;;17.90;89.90;;;;;;5027474;28;20214;-72
2023/05/29 05:24:26;;;;;;;3.57;3.13;;;17.80;90.10;;;;;;4998326;28;20204;-72
2023/05/29 05:26:52;;;;;;;2.90;2.50;;;17.90;90.30;;;;;;4995497;28;20526;-71
2023/05/29 05:29:18;;;;;;;4.03;3.30;;;17.90;90.50;;;;;;5014716;28;20241;-72
2023/05/29 05:31:44;;;;;;;3.20;2.90;;;17.90;90.50;;;;;;5007080;28;20218;-72
2023/05/29 05:34:10;;;;;;;6.23;2.70;;;17.90;90.70;;;;;;5020701;28;20259;-71
2023/05/29 05:36:36;;;;;;;4.67;2.80;;;18.00;90.90;;;;;;5016147;28;20480;-72
2023/05/29 05:39:08;;;;;;;3.13;2.53;;;18.00;91.00;;;;;;5028320;28;20699;-72
2023/05/29 05:41:33;;;;;;;6.87;2.50;;;18.00;91.10;;;;;;5031087;28;20459;-72
2023/05/29 05:44:00;;;;;;;4.07;2.97;;;18.00;91.30;;;;;;5006306;28;20240;-72
2023/05/29 05:46:43;;;;;;;3.33;2.63;;;18.00;91.60;;;;;;5012344;28;20448;-72
2023/05/29 05:49:09;;;;;;;3.20;2.90;;;18.10;91.70;;;;;;5009701;28;20447;-72
2023/05/29 05:51:36;;;;;;;3.90;2.90;;;18.10;91.40;;;;;;5017790;28;20249;-72
2023/05/29 05:54:01;;;;;;;4.87;3.50;;;18.20;91.40;;;;;;5003902;28;20487;-71
2023/05/29 05:56:28;;;;;;;7.33;3.30;;;18.20;91.50;;;;;;5015320;28;20237;-73
2023/05/29 05:58:54;;;;;;;4.50;3.27;;;18.20;91.50;;;;;;5001273;28;20511;-72
2023/05/29 06:01:20;;;;;;;4.37;2.70;;;18.30;91.70;;;;;;5020239;28;20703;-72
2023/05/29 06:03:47;;;;;;;4.93;3.20;;;18.20;91.70;;;;;;5010197;28;20452;-71
2023/05/29 06:06:13;;;;;;;6.53;3.60;;;18.30;91.90;;;;;;5016878;28;20525;-72
2023/05/29 06:08:42;;;;;;;4.00;2.83;;;18.30;91.80;;;;;;5001715;28;20252;-72
2023/05/29 06:11:08;;;;;;;4.23;3.07;;;18.40;92.00;;;;;;5023174;28;20460;-72
2023/05/29 06:13:36;;;;;;;9.10;3.10;;;18.40;92.10;;;;;;4998989;28;21001;-72
2023/05/29 06:16:07;;;;;;;5.60;2.97;;;18.50;92.30;;;;;;5015985;28;20952;-71
2023/05/29 06:18:33;;;;;;;5.20;3.07;;;18.50;92.50;;;;;;5029217;28;20466;-72
2023/05/29 06:20:59;;;;;;;5.37;3.70;;;18.60;92.40;;;;;;5002699;28;20212;-71
2023/05/29 06:23:25;;;;;;;5.83;3.20;;;18.60;93.00;;;;;;5022439;28;20245;-72
2023/05/29 06:25:51;;;;;;;4.50;2.93;;;18.70;92.90;;;;;;5002457;28;20541;-72
2023/05/29 06:28:16;;;;;;;5.53;3.93;;;18.80;92.90;;;;;;5014105;28;20232;-71
2023/05/29 06:30:42;;;;;;;3.50;3.03;;;18.80;93.20;;;;;;4996325;28;20217;-71
2023/05/29 06:33:08;;;;;;;4.73;3.23;;;18.90;93.20;;;;;;5018081;28;20225;-72
2023/05/29 06:35:36;;;;;;;4.43;3.47;;;19.00;93.00;;;;;;5006787;28;20293;-72
2023/05/29 06:38:03;;;;;;;4.17;3.17;;;19.10;93.00;;;;;;5014845;28;20512;-72
2023/05/29 06:40:29;;;;;;;8.03;3.40;;;19.20;93.30;;;;;;5025843;28;20547;-72
2023/05/29 06:42:54;;;;;;;3.63;3.20;;;19.20;93.20;;;;;;5001921;28;20222;-72
2023/05/29 06:45:35;;;;;;;3.30;3.00;;;19.30;93.60;;;;;;5019656;28;20205;-73
2023/05/29 06:48:01;;;;;;;3.30;3.00;;;19.40;93.00;;;;;;5027509;28;20474;-72
2023/05/29 06:50:26;;;;;;;3.30;3.00;;;19.40;92.90;;;;;;5015434;28;20213;-72
2023/05/29 06:52:52;;;;;;;5.80;4.27;;;19.50;93.40;;;;;;5025940;28;20262;-71
2023/05/29 06:55:41;;;;;;;4.03;3.10;;;19.50;93.20;;;;;;5014692;28;20459;-72
2023/05/29 06:58:07;;;;;;;3.97;3.17;;;19.60;93.00;;;;;;5014083;28;20962;-71
2023/05/29 07:00:33;;;;;;;3.30;3.03;;;19.80;93.00;;;;;;5011140;28;20455;-73
2023/05/29 07:03:20;;;;;;;3.67;2.83;;;19.90;93.00;;;;;;5037138;28;20225;-72
2023/05/29 07:05:46;;;;;;;6.30;3.20;;;20.00;92.40;;;;;;5013536;28;20440;-71
2023/05/29 07:08:11;;;;;;;8.10;4.80;;;20.10;92.00;;;;;;5005557;28;20469;-71
2023/05/29 07:10:37;;;;;;;3.93;3.53;;;20.00;92.10;;;;;;5004202;28;20279;-70
2023/05/29 07:13:03;;;;;;;5.43;3.00;;;20.10;91.80;;;;;;5011379;28;20308;-71
2023/05/29 07:15:29;;;;;;;3.80;3.07;;;20.10;91.60;;;;;;5006815;28;20230;-72
2023/05/29 07:17:55;;;;;;;8.10;3.17;;;20.00;91.80;;;;;;5028086;28;20490;-72
2023/05/29 07:20:25;;;;;;;5.07;4.00;;;20.10;91.90;;;;;;5027832;28;20545;-73
2023/05/29 07:22:51;;;;;;;5.83;3.10;;;20.10;92.00;;;;;;5008587;28;20981;-71
2023/05/29 07:25:17;;;;;;;3.90;3.30;;;20.30;91.90;;;;;;5021181;28;20517;-71
2023/05/29 07:27:43;;;;;;;4.03;3.20;;;20.60;91.70;;;;;;5018465;28;20707;-71
2023/05/29 07:30:10;;;;;;;4.50;3.90;;;20.80;91.40;;;;;;5023015;28;20218;-72
2023/05/29 07:32:36;;;;;;;5.43;3.50;;;20.80;91.30;;;;;;5020262;28;20463;-72
2023/05/29 07:35:01;;;;;;;4.10;3.00;;;20.60;91.70;;;;;;5027084;28;20482;-71
2023/05/29 07:37:29;;;;;;;3.30;3.00;;;20.80;91.80;;;;;;5028632;28;20756;-72
2023/05/29 07:39:56;;;;;;;7.13;4.60;;;20.90;91.60;;;;;;5019695;28;20460;-72
2023/05/29 07:42:42;;;;;;;5.47;3.90;;;20.80;91.60;;;;;;5008635;28;20451;-70
2023/05/29 07:45:08;;;;;;;4.10;3.17;;;20.90;91.80;;;;;;5008648;28;20935;-72
2023/05/29 07:47:33;;;;;;;4.03;3.37;;;21.10;91.00;;;;;;5033861;28;20224;-70
2023/05/29 07:49:59;;;;;;;3.73;2.70;;;21.20;90.80;;;;;;5011368;28;20246;-75
2023/05/29 07:52:27;;;;;;;7.60;3.00;;;21.20;90.60;;;;;;5026402;28;20232;-72
2023/05/29 07:54:54;;;;;;;4.23;3.37;;;21.30;90.80;;;;;;4998819;28;20464;-71
2023/05/29 07:57:21;;;;;;;3.70;3.20;;;21.40;90.70;;;;;;5022466;28;20648;-72
2023/05/29 07:59:49;;;;;;;4.43;3.10;;;21.50;90.30;;;;;;5004755;28;20554;-71
2023/05/29 08:02:16;;;;;;;3.50;2.87;;;21.40;90.10;;;;;;5017522;28;20217;-73
2023/05/29 08:05:00;;;;;;;8.37;4.73;;;21.20;90.00;;;;;;5013870;28;20450;-72
2023/05/29 08:07:29;;;;;;;5.90;3.80;;;21.20;90.00;;;;;;5026839;28;20459;-74
2023/05/29 08:09:55;;;;;;;5.07;3.57;;;21.20;89.30;;;;;;5007948;28;20292;-73
2023/05/29 08:12:21;;;;;;;4.30;3.90;;;21.30;88.60;;;;;;5010013;28;20468;-72
2023/05/29 08:14:48;;;;;;;6.30;3.60;;;21.30;89.40;;;;;;5010188;28;20451;-72
2023/05/29 08:17:14;;;;;;;4.20;3.10;;;21.40;87.80;;;;;;5026226;28;20458;-71
2023/05/29 08:19:40;;;;;;;5.27;3.00;;;21.50;87.60;;;;;;5019643;28;20208;-73
2023/05/29 08:22:06;;;;;;;8.00;3.87;;;21.70;87.90;;;;;;5010399;28;20474;-72
2023/05/29 08:24:32;;;;;;;5.63;3.33;;;21.90;88.10;;;;;;5024359;28;20447;-71
2023/05/29 08:26:58;;;;;;;6.20;4.00;;;22.10;88.00;;;;;;5017710;28;20452;-73
2023/05/29 08:29:23;;;;;;;4.00;3.60;;;22.30;87.70;;;;;;5012736;28;20275;-72
2023/05/29 08:31:49;;;;;;;4.60;3.50;;;22.10;87.40;;;;;;5010192;28;20217;-71
2023/05/29 08:34:15;;;;;;;4.07;3.67;;;22.30;86.80;;;;;;5015232;28;20231;-72
2023/05/29 08:36:42;;;;;;;3.93;3.53;;;22.50;86.50;;;;;;5010340;28;20216;-74
2023/05/29 08:39:08;;;;;;;5.57;5.03;;;22.60;86.90;;;;;;5027387;28;20302;-72
2023/05/29 08:42:00;;;;;;;3.70;3.30;;;22.60;87.10;;;;;;5017477;28;20510;-71
2023/05/29 08:44:30;;;;;;;3.73;3.13;;;22.30;87.00;;;;;;5020079;28;20611;-72
2023/05/29 08:46:56;;;;;;;3.67;3.37;;;22.40;86.90;;;;;;5023460;28;20996;-73
2023/05/29 08:49:22;;;;;;;3.77;3.33;;;22.60;86.00;;;;;;5020801;28;20488;-73
2023/05/29 08:51:57;;;;;;;3.60;2.73;;;22.70;86.20;;;;;;5008352;28;20298;-73
2023/05/29 08:54:23;;;;;;;3.97;3.47;;;22.70;86.40;;;;;;5021534;28;20466;-72
2023/05/29 08:56:49;;;;;;;3.43;2.80;;;23.00;85.80;;;;;;4997057;28;20465;-71
2023/05/29 08:59:16;;;;;;;5.97;4.10;;;23.10;84.80;;;;;;5010903;28;20443;-73
2023/05/29 09:01:42;;;;;;;5.30;3.80;;;23.30;85.00;;;;;;5020751;28;20208;-73
2023/05/29 09:04:08;;;;;;;3.90;3.53;;;23.30;84.70;;;;;;5021026;28;20451;-71
2023/05/29 09:06:34;;;;;;;3.97;3.27;;;23.20;84.70;;;;;;5010176;28;21009;-72
2023/05/29 09:09:00;;;;;;;3.33;3.03;;;23.50;85.00;;;;;;5019706;28;20515;-74
2023/05/29 09:11:26;;;;;;;3.97;3.10;;;23.80;84.30;;;;;;4999287;28;20216;-72
2023/05/29 09:13:53;;;;;;;3.50;2.90;;;23.80;84.10;;;;;;4999256;28;20478;-73
2023/05/29 09:16:19;;;;;;;4.33;3.40;;;23.90;84.50;;;;;;5010726;28;20217;-72
2023/05/29 09:18:48;;;;;;;5.73;3.70;;;23.90;84.50;;;;;;5013005;28;20463;-73
2023/05/29 09:21:34;;;;;;;4.40;3.23;;;23.80;83.30;;;;;;5016684;28;20498;-72
2023/05/29 09:24:05;;;;;;;6.43;3.43;;;24.00;83.70;;;;;;5018362;28;20447;-73
2023/05/29 09:26:31;;;;;;;4.93;4.00;;;23.90;84.00;;;;;;5019085;28;20442;-72
2023/05/29 09:28:58;;;;;;;4.40;3.17;;;23.90;83.70;;;;;;5019482;28;20486;-74
2023/05/29 09:31:24;;;;;;;4.70;3.27;;;24.10;83.70;;;;;;5011017;28;20475;-73
2023/05/29 09:33:50;;;;;;;3.53;3.00;;;24.00;83.20;;;;;;5015325;28;21694;-73
2023/05/29 09:36:21;;;;;;;5.43;3.10;;;24.30;83.20;;;;;;5019760;28;20658;-72
2023/05/29 09:38:47;;;;;;;4.90;3.57;;;24.60;84.40;;;;;;4999736;28;20472;-73
2023/05/29 09:41:13;;;;;;;3.20;3.00;;;24.60;82.70;;;;;;5026463;28;20830;-72
2023/05/29 09:43:40;;;;;;;3.60;3.30;;;24.60;81.60;;;;;;5014623;28;20223;-74
2023/05/29 09:46:06;;;;;;;3.47;3.17;;;24.50;81.40;;;;;;5005679;28;20578;-73
2023/05/29 09:48:33;;;;;;;4.10;3.70;;;24.50;81.90;;;;;;5022992;28;20559;-73
2023/05/29 09:51:02;;;;;;;3.80;3.50;;;24.50;82.00;;;;;;5012207;28;20980;-73
2023/05/29 09:53:28;;;;;;;5.23;3.90;;;24.40;81.30;;;;;;5008816;28;20482;-72
2023/05/29 09:56:00;;;;;;;6.70;3.40;;;24.60;81.60;;;;;;4996093;28;21057;-73
2023/05/29 09:58:26;;;;;;;3.87;3.43;;;24.70;81.10;;;;;;5020768;28;20482;-72
2023/05/29 10:00:53;;;;;;;4.10;3.00;;;24.90;81.30;;;;;;4997866;28;21030;-73
2023/05/29 10:03:21;;;;;;;3.50;3.10;;;24.90;80.80;;;;;;5016408;28;20217;-73
2023/05/29 10:05:51;;;;;;;3.67;3.37;;;24.90;80.50;;;;;;4995074;28;20480;-73
2023/05/29 10:08:20;;;;;;;4.83;4.00;;;24.80;80.20;;;;;;5025247;28;20902;-73
2023/05/29 10:10:52;;;;;;;3.33;2.90;;;24.80;80.20;;;;;;5000691;28;20473;-73
2023/05/29 10:13:18;;;;;;;7.90;3.70;;;24.90;80.30;;;;;;4996947;28;20904;-74
2023/05/29 10:15:46;;;;;;;6.83;3.73;;;25.10;80.20;;;;;;5010307;28;20505;-73
2023/05/29 10:18:35;;;;;;;4.87;3.60;;;25.10;80.30;;;;;;5018453;28;20482;-73
2023/05/29 10:21:01;;;;;;;3.37;3.13;;;24.70;79.10;;;;;;4996178;28;20459;-73
2023/05/29 10:23:29;;;;;;;3.53;3.23;;;24.80;79.00;;;;;;5013815;28;20475;-73
2023/05/29 10:26:10;;;;;;;3.97;3.40;;;24.90;79.70;;;;;;4999143;28;21041;-74
2023/05/29 10:28:41;;;;;;;4.47;3.70;;;25.00;80.00;;;;;;5007710;28;20483;-73
2023/05/29 10:31:16;;;;;;;5.07;3.50;;;24.80;79.60;;;;;;5019413;28;20468;-73
2023/05/29 10:34:01;;;;;;;3.87;3.40;;;24.90;80.40;;;;;;5007783;28;20479;-73
2023/05/29 10:36:35;;;;;;;4.33;3.40;;;24.90;78.30;;;;;;5002779;28;20525;-73
2023/05/29 10:39:01;;;;;;;3.30;2.97;;;24.90;78.00;;;;;;5011565;28;20462;-72
2023/05/29 10:41:27;;;;;;;6.50;3.33;;;24.90;78.80;;;;;;5024475;28;20463;-72
2023/05/29 10:44:03;;;;;;;5.73;3.03;;;25.40;76.70;;;;;;5019582;28;21219;-73
2023/05/29 10:46:49;;;;;;;3.50;3.20;;;25.80;76.70;;;;;;5003494;28;20212;-73
2023/05/29 10:49:19;;;;;;;4.63;3.50;;;25.80;76.60;;;;;;5010064;28;20486;-73
2023/05/29 10:51:46;;;;;;;8.77;4.03;;;25.60;77.10;;;;;;4998624;28;20474;-73
2023/05/29 10:54:13;;;;;;;6.23;3.40;;;25.40;77.90;;;;;;5013717;28;20478;-73
2023/05/29 10:56:40;;;;;;;4.37;3.47;;;25.40;77.20;;;;;;5012193;28;20943;-73
2023/05/29 10:59:07;;;;;;;4.27;3.87;;;24.90;77.40;;;;;;5010231;28;20517;-73
2023/05/29 11:01:34;;;;;;;7.00;3.30;;;25.30;77.40;;;;;;5017414;28;20467;-73
2023/05/29 11:04:17;;;;;;;6.13;3.50;;;25.00;76.60;;;;;;5022160;28;20451;-72
2023/05/29 11:06:43;;;;;;;5.90;4.00;;;24.60;77.50;;;;;;5009498;28;20520;-72
2023/05/29 11:09:31;;;;;;;4.87;3.80;;;24.80;77.70;;;;;;5007987;28;20455;-73
2023/05/29 11:12:32;;;;;;;6.27;3.50;;;25.10;77.30;;;;;;5034551;28;20574;-73
2023/05/29 11:15:05;;;;;;;5.60;3.27;;;25.30;75.30;;;;;;5030334;28;20519;-72
2023/05/29 11:17:37;;;;;;;4.70;3.33;;;25.40;73.70;;;;;;5020822;28;20540;-72
2023/05/29 11:20:22;;;;;;;4.43;3.10;;;25.60;74.00;;;;;;5018039;28;20449;-74
2023/05/29 11:22:48;;;;;;;3.93;3.13;;;25.60;73.40;;;;;;5029207;28;20490;-73
2023/05/29 11:25:15;;;;;;;2.83;2.63;;;25.30;72.40;;;;;;5022414;28;20486;-72
2023/05/29 11:27:42;;;;;;;3.77;3.57;;;25.60;71.50;;;;;;5029140;28;20212;-73
2023/05/29 11:30:08;;;;;;;3.90;3.40;;;25.50;71.80;;;;;;5024312;28;21038;-72
2023/05/29 11:32:36;;;;;;;3.73;3.17;;;25.30;72.20;;;;;;5029319;28;20467;-73
2023/05/29 11:35:08;;;;;;;3.73;3.00;;;25.30;71.30;;;;;;5023881;28;20208;-72
2023/05/29 11:37:47;;;;;;;5.53;3.40;;;25.40;69.40;;;;;;5049868;28;21016;-72
2023/05/29 11:40:14;;;;;;;5.60;3.07;;;25.60;69.30;;;;;;5018877;28;20458;-73
2023/05/29 11:42:44;;;;;;;3.80;3.20;;;25.60;69.40;;;;;;5030187;28;20458;-73
2023/05/29 11:45:13;;;;;;;4.20;3.70;;;25.70;71.30;;;;;;5017862;28;20483;-73
2023/05/29 11:47:55;;;;;;;5.13;3.50;;;25.60;71.40;;;;;;5026275;28;20571;-74
2023/05/29 11:50:26;;;;;;;7.73;4.03;;;25.50;69.30;;;;;;5029388;28;20455;-73
2023/05/29 11:52:52;;;;;;;3.30;3.00;;;25.50;69.90;;;;;;5022515;28;20479;-74
2023/05/29 11:55:20;;;;;;;4.10;3.40;;;25.50;69.80;;;;;;5026675;28;21031;-74
2023/05/29 11:57:50;;;;;;;3.63;3.13;;;25.60;69.50;;;;;;5053286;28;21019;-73
2023/05/29 12:00:18;;;;;;;5.20;3.93;;;25.50;68.10;;;;;;5033438;28;20463;-73
2023/05/29 12:02:46;;;;;;;9.00;3.13;;;25.50;69.80;;;;;;5009281;28;20550;-72
2023/05/29 12:05:14;;;;;;;4.57;3.10;;;25.50;68.20;;;;;;5013274;28;20488;-73
2023/05/29 12:07:57;;;;;;;7.00;3.17;;;25.60;69.30;;;;;;5033655;28;21032;-73
2023/05/29 12:10:23;;;;;;;6.27;3.80;;;25.70;69.80;;;;;;5018059;28;20467;-71
2023/05/29 12:12:55;;;;;;;3.53;3.23;;;25.80;68.90;;;;;;5027201;28;20901;-73
2023/05/29 12:15:21;;;;;;;4.67;3.50;;;25.70;70.40;;;;;;5045986;28;20460;-74
2023/05/29 12:17:49;;;;;;;4.97;4.30;;;25.70;69.80;;;;;;5024345;28;20523;-74
2023/05/29 12:20:16;;;;;;;4.10;3.70;;;25.70;70.20;;;;;;5034600;28;20503;-73
2023/05/29 12:22:43;;;;;;;3.73;3.47;;;25.80;70.40;;;;;;5027481;28;20551;-72
2023/05/29 12:25:09;;;;;;;7.03;6.40;;;26.00;68.90;;;;;;5019663;28;20452;-72
2023/05/29 12:27:42;;;;;;;4.20;3.73;;;25.80;70.70;;;;;;5021881;28;20463;-75
2023/05/29 12:30:10;;;;;;;4.20;3.80;;;25.30;71.40;;;;;;5020272;28;20458;-73
2023/05/29 12:32:40;;;;;;;3.90;3.50;;;25.20;71.00;;;;;;5031293;28;20893;-73
2023/05/29 12:35:19;;;;;;;4.30;3.40;;;25.30;71.00;;;;;;5011216;28;20994;-72
2023/05/29 12:38:00;;;;;;;5.30;3.30;;;25.00;71.70;;;;;;5005926;28;21013;-74
2023/05/29 12:40:27;;;;;;;4.10;3.50;;;25.30;71.10;;;;;;5034072;28;20509;-73
2023/05/29 12:42:56;;;;;;;4.50;3.67;;;25.70;71.80;;;;;;5020976;28;20463;-73
2023/05/29 12:45:26;;;;;;;4.70;3.27;;;25.80;70.40;;;;;;5029806;28;20474;-73
2023/05/29 12:47:52;;;;;;;3.83;3.53;;;25.80;71.20;;;;;;5031974;28;20483;-73
2023/05/29 12:50:26;;;;;;;4.33;3.93;;;25.70;72.10;;;;;;5029604;28;20471;-73
2023/05/29 12:53:00;;;;;;;4.00;3.47;;;25.70;72.80;;;;;;5031348;28;21064;-73